Decoded Metar for VOTR (TIRUCHCHIRAPPALLI in INDIA) (IATA:TRZ) | Meteo·Mobile Aviation Weather
aviador You're here:

VOTR Decoded Metar

TIRUCHCHIRAPPALLI in INDIA
Report Time2019-02-22 13:30:00
UTC Time2019-02-22 13:57:51
Flight Rules mvfr MVFR
Wind060° at 08 kt
W.Decomp.*RWY 09: 7.1 kt HW 3.8 kt LCW
W.Rank060° ranks 8
Current wind is above 060° avg. (5.7)
Visibility7000 m
Phenomena:N/A
Clouds:Few 016 Hf
Expected CloudBase > 5,200 ft AGL from Temp-Dew spread
CeilingNone
Temp29°C (ISA +15)
Dew Point16°C (45% RH)
Heat Index29.1°C
AAT28.0°C
QNH1011 hPa
Density Alt2,274 ft
Elevation289 ft
Report Wrong Elevation
Raw Report
VOTR 221330Z 06008KT 7000 FEW016 29/16 Q1011 NOSIG=

Extra information for VOTR:More info

Metar Taf Metar & Taf Last 4 Metars F.Rules Stats Wind Profile Meteogram Temp Stats Airport Information Weather charts Add Link Nearby VenuesMetar ALERT Operation Metar Decoded Social comments